sensor_id;sensor_type;location;lat;lon;timestamp;P1;durP1;ratioP1;P2;durP2;ratioP2
72649;SDS011;61467;50.674;4.618;2023-06-19T00:02:05;8.02;;;2.60;;
72649;SDS011;61467;50.674;4.618;2023-06-19T00:04:32;8.40;;;2.87;;
72649;SDS011;61467;50.674;4.618;2023-06-19T00:06:59;8.35;;;2.97;;
72649;SDS011;61467;50.674;4.618;2023-06-19T00:09:27;7.57;;;2.95;;
72649;SDS011;61467;50.674;4.618;2023-06-19T00:11:54;8.40;;;3.17;;
72649;SDS011;61467;50.674;4.618;2023-06-19T00:14:21;7.97;;;2.95;;
72649;SDS011;61467;50.674;4.618;2023-06-19T00:16:48;7.97;;;3.13;;
72649;SDS011;61467;50.674;4.618;2023-06-19T00:19:16;7.18;;;2.63;;
72649;SDS011;61467;50.674;4.618;2023-06-19T00:21:43;6.68;;;2.63;;
72649;SDS011;61467;50.674;4.618;2023-06-19T00:24:11;7.32;;;2.95;;
72649;SDS011;61467;50.674;4.618;2023-06-19T00:26:39;7.85;;;2.75;;
72649;SDS011;61467;50.674;4.618;2023-06-19T00:29:08;6.80;;;2.63;;
72649;SDS011;61467;50.674;4.618;2023-06-19T00:31:35;6.95;;;2.42;;
72649;SDS011;61467;50.674;4.618;2023-06-19T00:34:02;6.93;;;2.67;;
72649;SDS011;61467;50.674;4.618;2023-06-19T00:36:29;7.72;;;2.70;;
72649;SDS011;61467;50.674;4.618;2023-06-19T00:38:56;6.70;;;2.55;;
72649;SDS011;61467;50.674;4.618;2023-06-19T00:41:22;6.73;;;2.60;;
72649;SDS011;61467;50.674;4.618;2023-06-19T00:43:52;10.68;;;2.92;;
72649;SDS011;61467;50.674;4.618;2023-06-19T00:46:19;7.35;;;2.47;;
72649;SDS011;61467;50.674;4.618;2023-06-19T00:48:46;9.52;;;2.88;;
72649;SDS011;61467;50.674;4.618;2023-06-19T00:51:13;8.40;;;3.17;;
72649;SDS011;61467;50.674;4.618;2023-06-19T00:53:40;6.73;;;2.60;;
72649;SDS011;61467;50.674;4.618;2023-06-19T00:56:07;9.07;;;2.90;;
72649;SDS011;61467;50.674;4.618;2023-06-19T00:58:34;7.25;;;2.50;;
72649;SDS011;61467;50.674;4.618;2023-06-19T01:01:02;8.45;;;2.88;;
72649;SDS011;61467;50.674;4.618;2023-06-19T01:03:29;7.55;;;2.92;;
72649;SDS011;61467;50.674;4.618;2023-06-19T01:05:56;7.73;;;2.70;;
72649;SDS011;61467;50.674;4.618;2023-06-19T01:08:35;6.55;;;2.83;;
72649;SDS011;61467;50.674;4.618;2023-06-19T01:11:09;7.93;;;2.92;;
72649;SDS011;61467;50.674;4.618;2023-06-19T01:13:41;9.13;;;3.20;;
72649;SDS011;61467;50.674;4.618;2023-06-19T01:16:14;8.63;;;3.17;;
72649;SDS011;61467;50.674;4.618;2023-06-19T01:18:41;7.73;;;2.63;;
72649;SDS011;61467;50.674;4.618;2023-06-19T01:21:10;7.05;;;2.78;;
72649;SDS011;61467;50.674;4.618;2023-06-19T01:23:39;7.78;;;2.95;;
72649;SDS011;61467;50.674;4.618;2023-06-19T01:26:06;6.82;;;2.38;;
72649;SDS011;61467;50.674;4.618;2023-06-19T01:28:33;8.07;;;3.03;;
72649;SDS011;61467;50.674;4.618;2023-06-19T01:31:01;6.90;;;2.80;;
72649;SDS011;61467;50.674;4.618;2023-06-19T01:33:31;9.60;;;3.13;;
72649;SDS011;61467;50.674;4.618;2023-06-19T01:35:59;6.90;;;2.70;;
72649;SDS011;61467;50.674;4.618;2023-06-19T01:38:28;7.28;;;2.83;;
72649;SDS011;61467;50.674;4.618;2023-06-19T01:40:57;7.93;;;2.65;;
72649;SDS011;61467;50.674;4.618;2023-06-19T01:43:25;8.70;;;2.80;;
72649;SDS011;61467;50.674;4.618;2023-06-19T01:45:53;6.70;;;2.45;;
72649;SDS011;61467;50.674;4.618;2023-06-19T01:48:20;8.02;;;2.70;;
72649;SDS011;61467;50.674;4.618;2023-06-19T01:50:47;9.52;;;3.08;;
72649;SDS011;61467;50.674;4.618;2023-06-19T01:53:14;7.82;;;2.88;;
72649;SDS011;61467;50.674;4.618;2023-06-19T01:55:41;6.87;;;2.60;;
72649;SDS011;61467;50.674;4.618;2023-06-19T01:58:11;6.55;;;2.75;;
72649;SDS011;61467;50.674;4.618;2023-06-19T02:00:38;9.13;;;2.70;;
72649;SDS011;61467;50.674;4.618;2023-06-19T02:03:05;7.45;;;2.55;;
72649;SDS011;61467;50.674;4.618;2023-06-19T02:05:31;7.40;;;2.38;;
72649;SDS011;61467;50.674;4.618;2023-06-19T02:07:59;7.17;;;2.53;;
72649;SDS011;61467;50.674;4.618;2023-06-19T02:10:26;6.25;;;2.50;;
72649;SDS011;61467;50.674;4.618;2023-06-19T02:12:53;6.50;;;2.45;;
72649;SDS011;61467;50.674;4.618;2023-06-19T02:15:21;7.85;;;2.75;;
72649;SDS011;61467;50.674;4.618;2023-06-19T02:17:48;7.97;;;2.63;;
72649;SDS011;61467;50.674;4.618;2023-06-19T02:20:20;8.73;;;3.17;;
72649;SDS011;61467;50.674;4.618;2023-06-19T02:22:47;8.73;;;2.80;;
72649;SDS011;61467;50.674;4.618;2023-06-19T02:25:14;7.32;;;2.70;;
72649;SDS011;61467;50.674;4.618;2023-06-19T02:27:40;6.72;;;2.92;;
72649;SDS011;61467;50.674;4.618;2023-06-19T02:30:07;6.47;;;2.30;;
72649;SDS011;61467;50.674;4.618;2023-06-19T02:32:36;8.67;;;2.97;;
72649;SDS011;61467;50.674;4.618;2023-06-19T02:35:06;8.38;;;3.17;;
72649;SDS011;61467;50.674;4.618;2023-06-19T02:37:35;7.43;;;2.50;;
72649;SDS011;61467;50.674;4.618;2023-06-19T02:40:02;6.78;;;2.80;;
72649;SDS011;61467;50.674;4.618;2023-06-19T02:42:30;9.73;;;2.85;;
72649;SDS011;61467;50.674;4.618;2023-06-19T02:44:56;7.43;;;3.10;;
72649;SDS011;61467;50.674;4.618;2023-06-19T02:47:28;8.43;;;3.00;;
72649;SDS011;61467;50.674;4.618;2023-06-19T02:49:57;8.65;;;3.10;;
72649;SDS011;61467;50.674;4.618;2023-06-19T02:52:24;7.22;;;3.08;;
72649;SDS011;61467;50.674;4.618;2023-06-19T02:54:51;8.38;;;3.20;;
72649;SDS011;61467;50.674;4.618;2023-06-19T02:57:18;8.20;;;3.30;;
72649;SDS011;61467;50.674;4.618;2023-06-19T02:59:45;8.50;;;2.55;;
72649;SDS011;61467;50.674;4.618;2023-06-19T03:02:12;9.00;;;3.70;;
72649;SDS011;61467;50.674;4.618;2023-06-19T03:04:39;9.93;;;3.15;;
72649;SDS011;61467;50.674;4.618;2023-06-19T03:07:08;8.10;;;3.83;;
72649;SDS011;61467;50.674;4.618;2023-06-19T03:09:35;7.77;;;3.80;;
72649;SDS011;61467;50.674;4.618;2023-06-19T03:12:02;12.48;;;3.25;;
72649;SDS011;61467;50.674;4.618;2023-06-19T03:14:30;14.23;;;3.80;;
72649;SDS011;61467;50.674;4.618;2023-06-19T03:16:56;9.35;;;3.50;;
72649;SDS011;61467;50.674;4.618;2023-06-19T03:19:23;7.40;;;3.42;;
72649;SDS011;61467;50.674;4.618;2023-06-19T03:21:50;8.17;;;3.90;;
72649;SDS011;61467;50.674;4.618;2023-06-19T03:24:18;9.35;;;3.65;;
72649;SDS011;61467;50.674;4.618;2023-06-19T03:26:45;9.68;;;3.80;;
72649;SDS011;61467;50.674;4.618;2023-06-19T03:29:12;10.05;;;3.78;;
72649;SDS011;61467;50.674;4.618;2023-06-19T03:31:39;8.15;;;4.10;;
72649;SDS011;61467;50.674;4.618;2023-06-19T03:34:05;8.23;;;3.60;;
72649;SDS011;61467;50.674;4.618;2023-06-19T03:36:34;9.85;;;4.20;;
72649;SDS011;61467;50.674;4.618;2023-06-19T03:39:01;9.23;;;3.95;;
72649;SDS011;61467;50.674;4.618;2023-06-19T03:41:30;10.85;;;4.20;;
72649;SDS011;61467;50.674;4.618;2023-06-19T03:43:56;9.75;;;4.50;;
72649;SDS011;61467;50.674;4.618;2023-06-19T03:46:23;9.87;;;5.77;;
72649;SDS011;61467;50.674;4.618;2023-06-19T03:48:50;11.60;;;4.72;;
72649;SDS011;61467;50.674;4.618;2023-06-19T03:51:17;10.27;;;4.95;;
72649;SDS011;61467;50.674;4.618;2023-06-19T03:53:43;10.23;;;4.72;;
72649;SDS011;61467;50.674;4.618;2023-06-19T03:56:10;8.93;;;4.75;;
72649;SDS011;61467;50.674;4.618;2023-06-19T03:58:38;11.13;;;5.73;;
72649;SDS011;61467;50.674;4.618;2023-06-19T04:01:05;11.38;;;5.82;;
72649;SDS011;61467;50.674;4.618;2023-06-19T04:03:34;13.52;;;5.93;;
72649;SDS011;61467;50.674;4.618;2023-06-19T04:06:01;10.77;;;5.68;;
72649;SDS011;61467;50.674;4.618;2023-06-19T04:08:28;10.95;;;5.88;;
72649;SDS011;61467;50.674;4.618;2023-06-19T04:10:54;11.57;;;6.40;;
72649;SDS011;61467;50.674;4.618;2023-06-19T04:13:21;13.10;;;6.72;;
72649;SDS011;61467;50.674;4.618;2023-06-19T04:15:52;11.98;;;6.22;;
72649;SDS011;61467;50.674;4.618;2023-06-19T04:18:19;11.05;;;5.20;;
72649;SDS011;61467;50.674;4.618;2023-06-19T04:20:46;13.73;;;6.10;;
72649;SDS011;61467;50.674;4.618;2023-06-19T04:23:12;11.60;;;5.30;;
72649;SDS011;61467;50.674;4.618;2023-06-19T04:25:39;12.30;;;5.78;;
72649;SDS011;61467;50.674;4.618;2023-06-19T04:28:06;11.18;;;5.60;;
72649;SDS011;61467;50.674;4.618;2023-06-19T04:30:33;10.73;;;4.93;;
72649;SDS011;61467;50.674;4.618;2023-06-19T04:33:01;11.55;;;5.75;;
72649;SDS011;61467;50.674;4.618;2023-06-19T04:35:29;10.40;;;3.97;;
72649;SDS011;61467;50.674;4.618;2023-06-19T04:37:56;9.80;;;4.35;;
72649;SDS011;61467;50.674;4.618;2023-06-19T04:40:26;12.35;;;4.70;;
72649;SDS011;61467;50.674;4.618;2023-06-19T04:42:53;12.23;;;4.55;;
72649;SDS011;61467;50.674;4.618;2023-06-19T04:45:19;10.95;;;4.75;;
72649;SDS011;61467;50.674;4.618;2023-06-19T04:47:47;10.60;;;4.53;;
72649;SDS011;61467;50.674;4.618;2023-06-19T04:50:15;8.38;;;4.40;;
72649;SDS011;61467;50.674;4.618;2023-06-19T04:52:42;9.93;;;5.07;;
72649;SDS011;61467;50.674;4.618;2023-06-19T04:55:09;10.55;;;4.72;;
72649;SDS011;61467;50.674;4.618;2023-06-19T04:57:36;9.35;;;4.90;;
72649;SDS011;61467;50.674;4.618;2023-06-19T05:00:03;11.17;;;5.30;;
72649;SDS011;61467;50.674;4.618;2023-06-19T05:02:32;13.43;;;4.60;;
72649;SDS011;61467;50.674;4.618;2023-06-19T05:04:58;9.00;;;4.38;;
72649;SDS011;61467;50.674;4.618;2023-06-19T05:07:29;10.20;;;4.95;;
72649;SDS011;61467;50.674;4.618;2023-06-19T05:09:56;11.93;;;5.43;;
72649;SDS011;61467;50.674;4.618;2023-06-19T05:12:23;10.40;;;5.23;;
72649;SDS011;61467;50.674;4.618;2023-06-19T05:14:49;11.23;;;5.55;;
72649;SDS011;61467;50.674;4.618;2023-06-19T05:17:16;12.75;;;6.07;;
72649;SDS011;61467;50.674;4.618;2023-06-19T05:19:44;10.10;;;5.22;;
72649;SDS011;61467;50.674;4.618;2023-06-19T05:22:11;12.93;;;5.57;;
72649;SDS011;61467;50.674;4.618;2023-06-19T05:24:39;10.60;;;4.67;;
72649;SDS011;61467;50.674;4.618;2023-06-19T05:27:06;10.85;;;5.72;;
72649;SDS011;61467;50.674;4.618;2023-06-19T05:29:33;11.32;;;6.15;;
72649;SDS011;61467;50.674;4.618;2023-06-19T05:32:00;10.07;;;5.03;;
72649;SDS011;61467;50.674;4.618;2023-06-19T05:34:27;10.38;;;6.00;;
72649;SDS011;61467;50.674;4.618;2023-06-19T05:36:54;11.47;;;5.87;;
72649;SDS011;61467;50.674;4.618;2023-06-19T05:39:21;11.75;;;5.95;;
72649;SDS011;61467;50.674;4.618;2023-06-19T05:41:49;12.50;;;5.97;;
72649;SDS011;61467;50.674;4.618;2023-06-19T05:44:16;9.50;;;5.20;;
72649;SDS011;61467;50.674;4.618;2023-06-19T05:46:44;13.80;;;6.80;;
72649;SDS011;61467;50.674;4.618;2023-06-19T05:49:11;11.83;;;6.50;;
72649;SDS011;61467;50.674;4.618;2023-06-19T05:51:38;11.77;;;5.65;;
72649;SDS011;61467;50.674;4.618;2023-06-19T05:54:04;12.75;;;5.95;;
72649;SDS011;61467;50.674;4.618;2023-06-19T05:56:31;11.48;;;5.38;;
72649;SDS011;61467;50.674;4.618;2023-06-19T05:59:00;11.40;;;5.22;;
72649;SDS011;61467;50.674;4.618;2023-06-19T06:01:28;9.90;;;4.77;;
72649;SDS011;61467;50.674;4.618;2023-06-19T06:03:55;10.15;;;4.55;;
72649;SDS011;61467;50.674;4.618;2023-06-19T06:06:22;9.50;;;4.55;;
72649;SDS011;61467;50.674;4.618;2023-06-19T06:08:50;12.00;;;4.82;;
72649;SDS011;61467;50.674;4.618;2023-06-19T06:11:17;9.25;;;4.57;;
72649;SDS011;61467;50.674;4.618;2023-06-19T06:13:44;10.03;;;4.57;;
72649;SDS011;61467;50.674;4.618;2023-06-19T06:16:12;9.30;;;4.97;;
72649;SDS011;61467;50.674;4.618;2023-06-19T06:18:39;12.82;;;4.68;;
72649;SDS011;61467;50.674;4.618;2023-06-19T06:21:06;9.05;;;4.97;;
72649;SDS011;61467;50.674;4.618;2023-06-19T06:23:33;8.55;;;3.97;;
72649;SDS011;61467;50.674;4.618;2023-06-19T06:26:00;9.53;;;4.43;;
72649;SDS011;61467;50.674;4.618;2023-06-19T06:28:27;10.25;;;4.60;;
72649;SDS011;61467;50.674;4.618;2023-06-19T06:30:55;8.30;;;4.65;;
72649;SDS011;61467;50.674;4.618;2023-06-19T06:33:24;13.43;;;5.07;;
72649;SDS011;61467;50.674;4.618;2023-06-19T06:35:50;9.77;;;4.55;;
72649;SDS011;61467;50.674;4.618;2023-06-19T06:38:17;10.03;;;4.80;;
72649;SDS011;61467;50.674;4.618;2023-06-19T06:40:44;10.85;;;5.72;;
72649;SDS011;61467;50.674;4.618;2023-06-19T06:43:11;9.82;;;5.32;;
72649;SDS011;61467;50.674;4.618;2023-06-19T06:45:38;11.50;;;4.40;;
72649;SDS011;61467;50.674;4.618;2023-06-19T06:48:07;11.15;;;5.15;;
72649;SDS011;61467;50.674;4.618;2023-06-19T06:50:35;12.40;;;5.53;;
72649;SDS011;61467;50.674;4.618;2023-06-19T06:53:04;11.55;;;5.80;;
72649;SDS011;61467;50.674;4.618;2023-06-19T06:55:32;10.88;;;5.60;;
72649;SDS011;61467;50.674;4.618;2023-06-19T06:57:59;10.02;;;5.65;;
72649;SDS011;61467;50.674;4.618;2023-06-19T07:00:26;14.27;;;7.90;;
72649;SDS011;61467;50.674;4.618;2023-06-19T07:02:53;14.93;;;8.10;;
72649;SDS011;61467;50.674;4.618;2023-06-19T07:05:20;15.80;;;9.27;;
72649;SDS011;61467;50.674;4.618;2023-06-19T07:07:48;15.52;;;8.93;;
72649;SDS011;61467;50.674;4.618;2023-06-19T07:10:15;14.80;;;9.35;;
72649;SDS011;61467;50.674;4.618;2023-06-19T07:12:45;16.83;;;10.20;;
72649;SDS011;61467;50.674;4.618;2023-06-19T07:15:13;14.90;;;8.87;;
72649;SDS011;61467;50.674;4.618;2023-06-19T07:17:43;17.10;;;10.23;;
72649;SDS011;61467;50.674;4.618;2023-06-19T07:20:10;19.13;;;10.95;;
72649;SDS011;61467;50.674;4.618;2023-06-19T07:22:37;17.38;;;9.52;;
72649;SDS011;61467;50.674;4.618;2023-06-19T07:25:07;20.65;;;10.73;;
72649;SDS011;61467;50.674;4.618;2023-06-19T07:27:34;18.57;;;9.67;;
72649;SDS011;61467;50.674;4.618;2023-06-19T07:30:01;16.33;;;9.85;;
72649;SDS011;61467;50.674;4.618;2023-06-19T07:32:28;17.75;;;10.25;;
72649;SDS011;61467;50.674;4.618;2023-06-19T07:34:55;16.52;;;9.50;;
72649;SDS011;61467;50.674;4.618;2023-06-19T07:37:22;16.38;;;10.20;;
72649;SDS011;61467;50.674;4.618;2023-06-19T07:39:50;14.83;;;8.87;;
72649;SDS011;61467;50.674;4.618;2023-06-19T07:42:19;16.15;;;9.18;;
72649;SDS011;61467;50.674;4.618;2023-06-19T07:44:46;16.90;;;9.85;;
72649;SDS011;61467;50.674;4.618;2023-06-19T07:47:14;17.88;;;9.27;;
72649;SDS011;61467;50.674;4.618;2023-06-19T07:49:43;17.38;;;9.05;;
72649;SDS011;61467;50.674;4.618;2023-06-19T07:52:10;13.60;;;7.53;;
72649;SDS011;61467;50.674;4.618;2023-06-19T07:54:47;12.63;;;7.07;;
72649;SDS011;61467;50.674;4.618;2023-06-19T07:57:15;15.23;;;6.10;;
72649;SDS011;61467;50.674;4.618;2023-06-19T07:59:43;15.57;;;6.25;;
72649;SDS011;61467;50.674;4.618;2023-06-19T08:02:10;13.07;;;5.97;;
72649;SDS011;61467;50.674;4.618;2023-06-19T08:04:37;10.40;;;5.30;;
72649;SDS011;61467;50.674;4.618;2023-06-19T08:07:04;12.23;;;5.85;;
72649;SDS011;61467;50.674;4.618;2023-06-19T08:09:31;10.05;;;4.97;;
72649;SDS011;61467;50.674;4.618;2023-06-19T08:11:58;10.65;;;5.22;;
72649;SDS011;61467;50.674;4.618;2023-06-19T08:14:25;10.82;;;5.00;;
72649;SDS011;61467;50.674;4.618;2023-06-19T08:16:53;8.90;;;4.83;;
72649;SDS011;61467;50.674;4.618;2023-06-19T08:19:20;10.52;;;5.18;;
72649;SDS011;61467;50.674;4.618;2023-06-19T08:21:47;12.48;;;5.68;;
72649;SDS011;61467;50.674;4.618;2023-06-19T08:24:14;10.13;;;5.85;;
72649;SDS011;61467;50.674;4.618;2023-06-19T08:26:41;9.93;;;5.20;;
72649;SDS011;61467;50.674;4.618;2023-06-19T08:29:08;10.07;;;5.03;;
72649;SDS011;61467;50.674;4.618;2023-06-19T08:31:34;9.88;;;5.47;;
72649;SDS011;61467;50.674;4.618;2023-06-19T08:34:02;10.35;;;6.00;;
72649;SDS011;61467;50.674;4.618;2023-06-19T08:36:33;10.77;;;5.47;;
72649;SDS011;61467;50.674;4.618;2023-06-19T08:39:00;11.60;;;6.22;;
72649;SDS011;61467;50.674;4.618;2023-06-19T08:41:27;10.27;;;5.70;;
72649;SDS011;61467;50.674;4.618;2023-06-19T08:43:54;11.45;;;5.32;;
72649;SDS011;61467;50.674;4.618;2023-06-19T08:46:21;10.88;;;5.63;;
72649;SDS011;61467;50.674;4.618;2023-06-19T08:48:48;12.90;;;5.35;;
72649;SDS011;61467;50.674;4.618;2023-06-19T08:51:16;13.48;;;6.40;;
72649;SDS011;61467;50.674;4.618;2023-06-19T08:53:44;11.37;;;5.10;;
72649;SDS011;61467;50.674;4.618;2023-06-19T08:56:12;10.02;;;5.22;;
72649;SDS011;61467;50.674;4.618;2023-06-19T08:58:39;10.55;;;5.22;;
72649;SDS011;61467;50.674;4.618;2023-06-19T09:01:06;10.27;;;4.65;;
72649;SDS011;61467;50.674;4.618;2023-06-19T09:03:33;11.30;;;5.47;;
72649;SDS011;61467;50.674;4.618;2023-06-19T09:06:02;10.17;;;5.00;;
72649;SDS011;61467;50.674;4.618;2023-06-19T09:08:31;10.73;;;5.47;;
72649;SDS011;61467;50.674;4.618;2023-06-19T09:10:58;10.55;;;5.22;;
72649;SDS011;61467;50.674;4.618;2023-06-19T09:13:26;9.15;;;5.05;;
72649;SDS011;61467;50.674;4.618;2023-06-19T09:15:57;9.05;;;4.80;;
72649;SDS011;61467;50.674;4.618;2023-06-19T09:18:26;8.93;;;4.53;;
72649;SDS011;61467;50.674;4.618;2023-06-19T09:20:55;11.68;;;5.38;;
72649;SDS011;61467;50.674;4.618;2023-06-19T09:23:21;11.68;;;4.78;;
72649;SDS011;61467;50.674;4.618;2023-06-19T09:25:50;9.98;;;4.22;;
72649;SDS011;61467;50.674;4.618;2023-06-19T09:28:19;10.60;;;4.90;;
72649;SDS011;61467;50.674;4.618;2023-06-19T09:30:53;10.97;;;4.33;;
72649;SDS011;61467;50.674;4.618;2023-06-19T09:33:21;10.25;;;4.30;;
72649;SDS011;61467;50.674;4.618;2023-06-19T09:35:48;9.93;;;4.82;;
72649;SDS011;61467;50.674;4.618;2023-06-19T09:38:16;13.15;;;4.63;;
72649;SDS011;61467;50.674;4.618;2023-06-19T09:40:44;11.02;;;5.10;;
72649;SDS011;61467;50.674;4.618;2023-06-19T09:43:13;9.00;;;4.47;;
72649;SDS011;61467;50.674;4.618;2023-06-19T09:45:47;8.60;;;4.30;;
72649;SDS011;61467;50.674;4.618;2023-06-19T09:48:19;11.13;;;4.97;;
72649;SDS011;61467;50.674;4.618;2023-06-19T09:50:47;9.63;;;4.20;;
72649;SDS011;61467;50.674;4.618;2023-06-19T09:53:17;10.10;;;4.57;;
72649;SDS011;61467;50.674;4.618;2023-06-19T09:55:46;10.37;;;4.37;;
72649;SDS011;61467;50.674;4.618;2023-06-19T09:58:16;8.88;;;4.05;;
72649;SDS011;61467;50.674;4.618;2023-06-19T10:00:45;9.07;;;4.55;;
72649;SDS011;61467;50.674;4.618;2023-06-19T10:03:12;9.10;;;4.30;;
72649;SDS011;61467;50.674;4.618;2023-06-19T10:05:39;8.55;;;4.28;;
72649;SDS011;61467;50.674;4.618;2023-06-19T10:08:06;9.37;;;4.50;;
72649;SDS011;61467;50.674;4.618;2023-06-19T10:10:33;9.93;;;4.97;;
72649;SDS011;61467;50.674;4.618;2023-06-19T10:13:11;9.65;;;4.95;;
72649;SDS011;61467;50.674;4.618;2023-06-19T10:15:41;10.98;;;4.93;;
72649;SDS011;61467;50.674;4.618;2023-06-19T10:18:12;10.52;;;5.03;;
72649;SDS011;61467;50.674;4.618;2023-06-19T10:20:41;9.90;;;4.70;;
72649;SDS011;61467;50.674;4.618;2023-06-19T10:23:11;9.52;;;4.18;;
72649;SDS011;61467;50.674;4.618;2023-06-19T10:25:41;8.52;;;4.50;;
72649;SDS011;61467;50.674;4.618;2023-06-19T10:28:18;8.82;;;4.20;;
72649;SDS011;61467;50.674;4.618;2023-06-19T10:30:52;11.07;;;4.93;;
72649;SDS011;61467;50.674;4.618;2023-06-19T10:33:20;10.57;;;4.57;;
72649;SDS011;61467;50.674;4.618;2023-06-19T10:35:47;7.90;;;4.35;;
72649;SDS011;61467;50.674;4.618;2023-06-19T10:38:14;9.35;;;4.40;;
72649;SDS011;61467;50.674;4.618;2023-06-19T10:40:41;10.30;;;4.47;;
72649;SDS011;61467;50.674;4.618;2023-06-19T10:43:09;10.65;;;4.50;;
72649;SDS011;61467;50.674;4.618;2023-06-19T10:45:36;10.83;;;4.43;;
72649;SDS011;61467;50.674;4.618;2023-06-19T10:48:04;9.70;;;4.38;;
72649;SDS011;61467;50.674;4.618;2023-06-19T10:50:33;8.50;;;4.40;;
72649;SDS011;61467;50.674;4.618;2023-06-19T10:53:01;8.82;;;4.65;;
72649;SDS011;61467;50.674;4.618;2023-06-19T10:55:28;9.95;;;4.90;;
72649;SDS011;61467;50.674;4.618;2023-06-19T10:57:55;9.17;;;4.50;;
72649;SDS011;61467;50.674;4.618;2023-06-19T11:00:22;8.93;;;4.40;;
72649;SDS011;61467;50.674;4.618;2023-06-19T11:02:50;9.07;;;4.85;;
72649;SDS011;61467;50.674;4.618;2023-06-19T11:05:20;9.73;;;4.07;;
72649;SDS011;61467;50.674;4.618;2023-06-19T11:07:54;9.55;;;4.75;;
72649;SDS011;61467;50.674;4.618;2023-06-19T11:10:23;12.53;;;4.43;;
72649;SDS011;61467;50.674;4.618;2023-06-19T11:12:53;8.93;;;3.95;;
72649;SDS011;61467;50.674;4.618;2023-06-19T11:15:27;10.23;;;5.00;;
72649;SDS011;61467;50.674;4.618;2023-06-19T11:17:55;9.82;;;4.40;;
72649;SDS011;61467;50.674;4.618;2023-06-19T11:20:23;10.95;;;4.75;;
72649;SDS011;61467;50.674;4.618;2023-06-19T11:22:54;8.27;;;3.80;;
72649;SDS011;61467;50.674;4.618;2023-06-19T11:25:22;10.18;;;4.20;;
72649;SDS011;61467;50.674;4.618;2023-06-19T11:27:51;9.00;;;4.50;;
72649;SDS011;61467;50.674;4.618;2023-06-19T11:30:29;9.23;;;4.00;;
72649;SDS011;61467;50.674;4.618;2023-06-19T11:32:57;9.48;;;4.05;;
72649;SDS011;61467;50.674;4.618;2023-06-19T11:35:25;9.30;;;4.20;;
72649;SDS011;61467;50.674;4.618;2023-06-19T11:38:01;11.20;;;4.57;;
72649;SDS011;61467;50.674;4.618;2023-06-19T11:40:28;9.52;;;4.25;;
72649;SDS011;61467;50.674;4.618;2023-06-19T11:42:55;8.60;;;4.20;;
72649;SDS011;61467;50.674;4.618;2023-06-19T11:45:22;10.02;;;4.38;;
72649;SDS011;61467;50.674;4.618;2023-06-19T11:47:49;9.77;;;4.03;;
72649;SDS011;61467;50.674;4.618;2023-06-19T11:50:16;8.02;;;3.83;;
72649;SDS011;61467;50.674;4.618;2023-06-19T11:52:47;7.97;;;4.07;;
72649;SDS011;61467;50.674;4.618;2023-06-19T11:55:14;8.50;;;4.13;;
72649;SDS011;61467;50.674;4.618;2023-06-19T11:57:42;8.80;;;3.63;;
72649;SDS011;61467;50.674;4.618;2023-06-19T12:00:13;8.10;;;4.10;;
72649;SDS011;61467;50.674;4.618;2023-06-19T12:02:41;8.35;;;3.92;;
72649;SDS011;61467;50.674;4.618;2023-06-19T12:05:10;9.18;;;4.20;;
72649;SDS011;61467;50.674;4.618;2023-06-19T12:07:37;8.35;;;3.88;;
72649;SDS011;61467;50.674;4.618;2023-06-19T12:10:06;10.25;;;4.63;;
72649;SDS011;61467;50.674;4.618;2023-06-19T12:12:37;9.40;;;4.80;;
72649;SDS011;61467;50.674;4.618;2023-06-19T12:15:06;8.43;;;3.88;;
72649;SDS011;61467;50.674;4.618;2023-06-19T12:17:33;9.38;;;3.85;;
72649;SDS011;61467;50.674;4.618;2023-06-19T12:20:00;9.93;;;3.63;;
72649;SDS011;61467;50.674;4.618;2023-06-19T12:22:30;8.10;;;3.88;;
72649;SDS011;61467;50.674;4.618;2023-06-19T12:24:59;8.20;;;3.50;;
72649;SDS011;61467;50.674;4.618;2023-06-19T12:27:27;8.23;;;3.75;;
72649;SDS011;61467;50.674;4.618;2023-06-19T12:29:54;8.50;;;4.03;;
72649;SDS011;61467;50.674;4.618;2023-06-19T12:32:21;10.30;;;3.95;;
72649;SDS011;61467;50.674;4.618;2023-06-19T12:34:47;8.52;;;4.10;;
72649;SDS011;61467;50.674;4.618;2023-06-19T12:37:14;7.07;;;3.30;;
72649;SDS011;61467;50.674;4.618;2023-06-19T12:39:42;8.95;;;3.47;;
72649;SDS011;61467;50.674;4.618;2023-06-19T12:42:10;7.70;;;3.70;;
72649;SDS011;61467;50.674;4.618;2023-06-19T12:44:40;8.77;;;3.65;;
72649;SDS011;61467;50.674;4.618;2023-06-19T12:47:07;7.68;;;3.50;;
72649;SDS011;61467;50.674;4.618;2023-06-19T12:49:34;6.43;;;2.70;;
72649;SDS011;61467;50.674;4.618;2023-06-19T12:52:01;8.82;;;3.30;;
72649;SDS011;61467;50.674;4.618;2023-06-19T12:54:28;7.95;;;3.42;;
72649;SDS011;61467;50.674;4.618;2023-06-19T12:56:55;10.27;;;3.20;;
72649;SDS011;61467;50.674;4.618;2023-06-19T12:59:22;8.98;;;3.28;;
72649;SDS011;61467;50.674;4.618;2023-06-19T13:01:51;7.20;;;2.90;;
72649;SDS011;61467;50.674;4.618;2023-06-19T13:04:18;8.68;;;3.20;;
72649;SDS011;61467;50.674;4.618;2023-06-19T13:06:44;7.60;;;3.35;;
72649;SDS011;61467;50.674;4.618;2023-06-19T13:09:11;7.93;;;3.00;;
72649;SDS011;61467;50.674;4.618;2023-06-19T13:11:38;7.07;;;3.45;;
72649;SDS011;61467;50.674;4.618;2023-06-19T13:14:05;7.97;;;3.00;;
72649;SDS011;61467;50.674;4.618;2023-06-19T13:16:32;7.00;;;2.75;;
72649;SDS011;61467;50.674;4.618;2023-06-19T13:19:00;7.13;;;3.10;;
72649;SDS011;61467;50.674;4.618;2023-06-19T13:21:27;7.47;;;3.33;;
72649;SDS011;61467;50.674;4.618;2023-06-19T13:23:54;7.78;;;3.15;;
72649;SDS011;61467;50.674;4.618;2023-06-19T13:26:20;7.47;;;3.37;;
72649;SDS011;61467;50.674;4.618;2023-06-19T13:28:47;8.25;;;3.67;;
72649;SDS011;61467;50.674;4.618;2023-06-19T13:31:16;7.32;;;2.70;;
72649;SDS011;61467;50.674;4.618;2023-06-19T13:33:43;6.75;;;2.97;;
72649;SDS011;61467;50.674;4.618;2023-06-19T13:36:12;8.43;;;2.67;;
72649;SDS011;61467;50.674;4.618;2023-06-19T13:38:38;7.23;;;2.83;;
72649;SDS011;61467;50.674;4.618;2023-06-19T13:41:05;7.05;;;3.05;;
72649;SDS011;61467;50.674;4.618;2023-06-19T13:43:32;6.50;;;2.70;;
72649;SDS011;61467;50.674;4.618;2023-06-19T13:45:59;8.25;;;3.03;;
72649;SDS011;61467;50.674;4.618;2023-06-19T13:48:28;6.72;;;3.10;;
72649;SDS011;61467;50.674;4.618;2023-06-19T13:50:55;7.83;;;3.17;;
72649;SDS011;61467;50.674;4.618;2023-06-19T13:53:25;8.13;;;3.50;;
72649;SDS011;61467;50.674;4.618;2023-06-19T13:55:53;7.70;;;2.97;;
72649;SDS011;61467;50.674;4.618;2023-06-19T13:58:20;9.23;;;3.00;;
72649;SDS011;61467;50.674;4.618;2023-06-19T14:00:47;7.15;;;2.88;;
72649;SDS011;61467;50.674;4.618;2023-06-19T14:03:14;7.87;;;3.20;;
72649;SDS011;61467;50.674;4.618;2023-06-19T14:05:41;6.90;;;2.85;;
72649;SDS011;61467;50.674;4.618;2023-06-19T14:08:08;7.57;;;2.95;;
72649;SDS011;61467;50.674;4.618;2023-06-19T14:10:36;6.63;;;2.88;;
72649;SDS011;61467;50.674;4.618;2023-06-19T14:13:03;7.40;;;3.15;;
72649;SDS011;61467;50.674;4.618;2023-06-19T14:15:31;8.20;;;3.27;;
72649;SDS011;61467;50.674;4.618;2023-06-19T14:18:00;8.13;;;3.22;;
72649;SDS011;61467;50.674;4.618;2023-06-19T14:20:27;7.53;;;3.75;;
72649;SDS011;61467;50.674;4.618;2023-06-19T14:22:54;7.60;;;3.10;;
72649;SDS011;61467;50.674;4.618;2023-06-19T14:25:21;7.63;;;3.08;;
72649;SDS011;61467;50.674;4.618;2023-06-19T14:27:49;6.63;;;2.93;;
72649;SDS011;61467;50.674;4.618;2023-06-19T14:30:18;7.18;;;3.22;;
72649;SDS011;61467;50.674;4.618;2023-06-19T14:32:45;7.25;;;3.03;;
72649;SDS011;61467;50.674;4.618;2023-06-19T14:35:13;6.97;;;2.90;;
72649;SDS011;61467;50.674;4.618;2023-06-19T14:37:40;7.00;;;3.45;;
72649;SDS011;61467;50.674;4.618;2023-06-19T14:40:07;7.40;;;3.00;;
72649;SDS011;61467;50.674;4.618;2023-06-19T14:42:35;8.52;;;3.05;;
72649;SDS011;61467;50.674;4.618;2023-06-19T14:45:03;7.95;;;3.00;;
72649;SDS011;61467;50.674;4.618;2023-06-19T14:47:30;9.93;;;3.42;;